createdAt,value
2018-11-28T00:01:45.265Z,34.83
2018-11-28T00:03:48.850Z,34.73
2018-11-28T00:05:54.605Z,31.47
2018-11-28T00:07:58.348Z,34.67
2018-11-28T00:10:01.961Z,36.07
2018-11-28T00:12:05.669Z,36.53
2018-11-28T00:14:09.213Z,32.70
2018-11-28T00:16:12.729Z,34.47
2018-11-28T00:18:16.377Z,34.87
2018-11-28T00:20:21.175Z,34.63
2018-11-28T00:22:24.710Z,35.63
2018-11-28T00:24:28.241Z,32.77
2018-11-28T00:26:31.834Z,35.17
2018-11-28T00:28:35.485Z,32.77
2018-11-28T00:30:39.050Z,33.43
2018-11-28T00:32:42.931Z,35.00
2018-11-28T00:34:46.654Z,32.73
2018-11-28T00:36:50.162Z,32.87
2018-11-28T00:38:53.740Z,32.23
2018-11-28T00:40:57.271Z,31.40
2018-11-28T00:43:00.773Z,30.63
2018-11-28T00:45:05.444Z,36.83
2018-11-28T00:47:08.977Z,33.90
2018-11-28T00:49:12.529Z,33.43
2018-11-28T00:51:16.088Z,36.77
2018-11-28T00:53:19.580Z,31.93
2018-11-28T00:55:23.149Z,30.50
2018-11-28T00:57:26.714Z,32.80
2018-11-28T00:59:30.242Z,32.57
2018-11-28T01:01:33.777Z,33.40
2018-11-28T01:03:37.299Z,30.60
2018-11-28T01:05:40.798Z,31.37
2018-11-28T01:07:45.153Z,33.53
2018-11-28T01:09:48.823Z,34.67
2018-11-28T01:11:52.460Z,32.87
2018-11-28T01:13:56.090Z,31.33
2018-11-28T01:16:00.121Z,30.23
2018-11-28T01:18:03.617Z,33.47
2018-11-28T01:20:10.911Z,31.60
2018-11-28T01:22:14.411Z,31.17
2018-11-28T01:24:17.965Z,32.80
2018-11-28T01:26:21.454Z,35.83
2018-11-28T01:28:24.942Z,31.93
2018-11-28T01:30:35.138Z,32.30
2018-11-28T01:32:38.972Z,33.37
2018-11-28T01:34:42.494Z,31.10
2018-11-28T01:36:46.021Z,32.07
2018-11-28T01:38:49.568Z,30.63
2018-11-28T01:40:53.194Z,37.17
2018-11-28T01:42:56.687Z,33.23
2018-11-28T01:45:00.260Z,35.50
2018-11-28T01:47:03.797Z,33.93
2018-11-28T01:49:07.401Z,31.10
2018-11-28T01:51:10.993Z,32.87
2018-11-28T01:53:14.498Z,37.07
2018-11-28T01:55:19.278Z,36.13
2018-11-28T01:57:23.021Z,33.57
2018-11-28T01:59:26.539Z,35.27
2018-11-28T02:01:30.080Z,37.20
2018-11-28T02:03:33.578Z,38.40
2018-11-28T02:05:37.149Z,35.70
2018-11-28T02:07:40.731Z,37.27
2018-11-28T02:09:44.268Z,35.87
2018-11-28T02:11:48.030Z,40.47
2018-11-28T02:13:51.649Z,31.03
2018-11-28T02:15:55.218Z,38.20
2018-11-28T02:17:58.886Z,35.87
2018-11-28T02:20:02.574Z,36.87
2018-11-28T02:22:06.145Z,39.53
2018-11-28T02:24:09.645Z,35.47
2018-11-28T02:26:13.351Z,36.60
2018-11-28T02:28:16.921Z,33.67
2018-11-28T02:30:20.940Z,39.93
2018-11-28T02:32:24.532Z,33.40
2018-11-28T02:34:28.066Z,33.57
2018-11-28T02:36:31.734Z,34.37
2018-11-28T02:38:35.281Z,33.33
2018-11-28T02:40:38.997Z,35.07
2018-11-28T02:42:42.610Z,32.47
2018-11-28T02:44:46.256Z,32.13
2018-11-28T02:46:49.825Z,33.63
2018-11-28T02:48:53.379Z,39.07
2018-11-28T02:50:56.895Z,34.13
2018-11-28T02:53:00.443Z,38.77
2018-11-28T02:55:04.109Z,37.87
2018-11-28T02:57:07.645Z,35.07
2018-11-28T02:59:11.170Z,35.93
2018-11-28T03:01:14.882Z,41.50
2018-11-28T03:03:18.510Z,41.27
2018-11-28T03:05:22.190Z,34.77
2018-11-28T03:07:25.678Z,39.00
2018-11-28T03:09:29.388Z,36.70
2018-11-28T03:11:32.911Z,35.90
2018-11-28T03:13:36.683Z,35.27
2018-11-28T03:15:42.782Z,35.77
2018-11-28T03:17:46.297Z,37.43
2018-11-28T03:19:49.809Z,36.30
2018-11-28T03:21:53.326Z,35.33
2018-11-28T03:23:57.018Z,43.73
2018-11-28T03:26:00.590Z,36.23
2018-11-28T03:28:04.173Z,38.93
2018-11-28T03:30:14.724Z,38.37
2018-11-28T03:32:18.222Z,38.17
2018-11-28T03:34:23.261Z,36.63
2018-11-28T03:36:26.800Z,43.10
2018-11-28T03:38:30.345Z,38.43
2018-11-28T03:40:33.918Z,38.07
2018-11-28T03:42:37.506Z,38.27
2018-11-28T03:44:41.291Z,34.60
2018-11-28T03:46:44.943Z,33.13
2018-11-28T03:48:48.510Z,34.00
2018-11-28T03:50:52.121Z,34.97
2018-11-28T03:52:55.855Z,36.47
2018-11-28T03:54:59.391Z,35.07
2018-11-28T03:57:02.926Z,36.43
2018-11-28T03:59:06.672Z,32.80
2018-11-28T04:01:10.145Z,33.30
2018-11-28T04:03:13.637Z,31.20
2018-11-28T04:05:17.257Z,36.40
2018-11-28T04:07:20.897Z,30.60
2018-11-28T04:09:24.430Z,30.83
2018-11-28T04:11:27.950Z,30.93
2018-11-28T04:13:31.752Z,33.90
2018-11-28T04:15:35.401Z,30.80
2018-11-28T04:17:39.034Z,29.97
2018-11-28T04:19:42.614Z,32.00
2018-11-28T04:21:46.211Z,27.83
2018-11-28T04:23:50.057Z,30.53
2018-11-28T04:25:53.583Z,32.80
2018-11-28T04:27:57.106Z,35.77
2018-11-28T04:30:00.595Z,30.47
2018-11-28T04:32:04.131Z,31.50
2018-11-28T04:34:07.713Z,30.27
2018-11-28T04:36:11.222Z,30.30
2018-11-28T04:38:14.747Z,31.13
2018-11-28T04:40:19.465Z,28.87
2018-11-28T04:42:22.969Z,28.83
2018-11-28T04:44:26.532Z,30.23
2018-11-28T04:46:30.085Z,29.60
2018-11-28T04:48:33.641Z,25.10
2018-11-28T04:50:37.201Z,26.40
2018-11-28T04:52:40.778Z,31.23
2018-11-28T04:54:45.564Z,29.43
2018-11-28T04:56:49.089Z,31.77
2018-11-28T04:58:52.709Z,30.07
2018-11-28T05:00:56.329Z,29.97
2018-11-28T05:02:59.882Z,27.67
2018-11-28T05:05:03.614Z,30.67
2018-11-28T05:07:37.981Z,32.10
2018-11-28T05:09:41.599Z,32.50
2018-11-28T05:11:45.122Z,30.07
2018-11-28T05:13:48.658Z,26.70
2018-11-28T05:15:52.198Z,33.53
2018-11-28T05:17:55.756Z,28.63
2018-11-28T05:19:59.261Z,31.23
2018-11-28T05:22:02.791Z,32.00
2018-11-28T05:24:06.434Z,31.17
2018-11-28T05:26:10.074Z,31.33
2018-11-28T05:28:13.705Z,28.93
2018-11-28T05:30:18.524Z,34.70
2018-11-28T05:32:22.074Z,31.23
2018-11-28T05:34:25.651Z,31.13
2018-11-28T05:36:29.439Z,30.57
2018-11-28T05:38:33.014Z,35.33
2018-11-28T05:40:36.539Z,29.47
2018-11-28T05:42:40.165Z,30.93
2018-11-28T05:44:43.702Z,31.87
2018-11-28T05:46:47.350Z,32.27
2018-11-28T05:48:51.063Z,32.60
2018-11-28T05:50:54.704Z,27.73
2018-11-28T05:52:58.374Z,31.20
2018-11-28T05:55:01.921Z,30.60
2018-11-28T05:57:06.209Z,31.13
2018-11-28T05:59:09.736Z,30.07
2018-11-28T06:01:13.269Z,33.63
2018-11-28T06:03:16.776Z,31.83
2018-11-28T06:05:20.353Z,31.90
2018-11-28T06:07:23.876Z,32.20
2018-11-28T06:09:27.559Z,34.30
2018-11-28T06:11:31.158Z,29.00
2018-11-28T06:13:35.091Z,30.60
2018-11-28T06:15:38.661Z,32.70
2018-11-28T06:17:42.162Z,29.10
2018-11-28T06:19:45.830Z,26.07
2018-11-28T06:21:50.965Z,35.17
2018-11-28T06:23:55.858Z,31.57
2018-11-28T06:26:00.632Z,31.60
2018-11-28T06:28:04.161Z,30.57
2018-11-28T06:30:10.267Z,28.33
2018-11-28T06:32:13.890Z,29.97
2018-11-28T06:34:17.434Z,27.03
2018-11-28T06:36:21.193Z,29.47
2018-11-28T06:38:24.754Z,27.73
2018-11-28T06:40:28.265Z,26.10
2018-11-28T06:42:33.626Z,27.03
2018-11-28T06:44:37.555Z,30.27
2018-11-28T06:46:41.288Z,32.00
2018-11-28T06:48:44.907Z,30.80
2018-11-28T06:50:48.593Z,26.27
2018-11-28T06:52:52.321Z,25.77
2018-11-28T06:54:55.858Z,23.53
2018-11-28T06:56:59.570Z,26.73
2018-11-28T06:59:03.166Z,26.93
2018-11-28T07:01:07.340Z,26.73
2018-11-28T07:03:10.888Z,28.23
2018-11-28T07:05:14.558Z,28.87
2018-11-28T07:07:18.070Z,28.47
2018-11-28T07:09:21.750Z,29.80
2018-11-28T07:11:25.277Z,27.20
2018-11-28T07:13:35.317Z,35.30
2018-11-28T07:15:38.821Z,43.20
2018-11-28T07:17:42.822Z,42.80
2018-11-28T07:19:46.359Z,45.00
2018-11-28T07:21:49.890Z,38.70
2018-11-28T07:23:53.384Z,41.13
2018-11-28T07:25:57.137Z,35.67
2018-11-28T07:28:00.624Z,39.13
2018-11-28T07:30:05.392Z,31.90
2018-11-28T07:32:08.917Z,35.60
2018-11-28T07:34:12.450Z,34.97
2018-11-28T07:36:15.960Z,30.10
2018-11-28T07:38:19.638Z,31.57
2018-11-28T07:40:26.871Z,29.47
2018-11-28T07:42:30.485Z,31.93
2018-11-28T07:44:34.026Z,30.03
2018-11-28T07:46:37.514Z,32.63
2018-11-28T07:48:41.118Z,28.87
2018-11-28T07:50:44.677Z,33.97
2018-11-28T07:52:48.202Z,31.47
2018-11-28T07:54:51.735Z,33.43
2018-11-28T07:56:55.252Z,31.53
2018-11-28T07:58:58.798Z,35.57
2018-11-28T08:01:02.638Z,29.97
2018-11-28T08:03:07.873Z,32.00
2018-11-28T08:05:12.410Z,34.60
2018-11-28T08:07:16.084Z,34.53
2018-11-28T08:09:19.700Z,36.77
2018-11-28T08:11:23.164Z,32.10
2018-11-28T08:13:26.878Z,35.20
2018-11-28T08:15:30.385Z,34.77
2018-11-28T08:17:33.886Z,33.07
2018-11-28T08:19:37.957Z,33.13
2018-11-28T08:21:41.499Z,32.73
2018-11-28T08:23:45.221Z,30.27
2018-11-28T08:25:48.839Z,34.17
2018-11-28T08:27:52.567Z,31.07
2018-11-28T08:29:56.042Z,34.87
2018-11-28T08:31:59.563Z,32.60
2018-11-28T08:34:03.078Z,37.13
2018-11-28T08:36:06.996Z,34.83
2018-11-28T08:38:10.552Z,32.70
2018-11-28T08:40:16.105Z,33.40
2018-11-28T08:42:19.729Z,33.03
2018-11-28T08:44:23.193Z,31.50
2018-11-28T08:46:26.991Z,30.17
2018-11-28T08:48:30.597Z,29.80
2018-11-28T08:50:35.510Z,30.43
2018-11-28T08:52:39.118Z,33.97
2018-11-28T08:54:42.675Z,28.40
2018-11-28T08:56:46.276Z,33.50
2018-11-28T08:58:50.011Z,32.70
2018-11-28T09:00:53.605Z,32.03
2018-11-28T09:02:57.959Z,29.43
2018-11-28T09:05:01.615Z,31.87
2018-11-28T09:07:05.590Z,32.90
2018-11-28T09:09:09.222Z,31.97
2018-11-28T09:11:12.780Z,31.33
2018-11-28T09:13:16.245Z,29.20
2018-11-28T09:15:22.052Z,30.33
2018-11-28T09:17:25.530Z,31.60
2018-11-28T09:19:29.343Z,30.00
2018-11-28T09:21:33.124Z,30.57
2018-11-28T09:23:36.686Z,29.87
2018-11-28T09:25:40.304Z,32.80
2018-11-28T09:27:44.817Z,29.40
2018-11-28T09:29:48.300Z,31.47
2018-11-28T09:31:51.870Z,31.57
2018-11-28T09:33:55.431Z,30.33
2018-11-28T09:35:58.950Z,27.93
2018-11-28T09:38:02.540Z,28.47
2018-11-28T09:40:10.222Z,28.93
2018-11-28T09:42:13.833Z,27.80
2018-11-28T09:44:17.398Z,29.20
2018-11-28T09:46:21.482Z,26.20
2018-11-28T09:48:25.206Z,28.70
2018-11-28T09:50:28.772Z,32.37
2018-11-28T09:52:32.314Z,29.93
2018-11-28T09:54:36.025Z,26.43
2018-11-28T09:56:39.894Z,29.67
2018-11-28T09:58:43.582Z,27.73
2018-11-28T10:00:47.135Z,26.97
2018-11-28T10:02:51.840Z,30.17
2018-11-28T10:04:55.413Z,28.53
2018-11-28T10:06:58.951Z,29.47
2018-11-28T10:09:02.622Z,24.80
2018-11-28T10:11:06.486Z,32.43
2018-11-28T10:13:10.239Z,30.73
2018-11-28T10:15:20.213Z,30.33
2018-11-28T10:17:23.710Z,28.07
2018-11-28T10:19:27.259Z,27.03
2018-11-28T10:21:30.962Z,28.00
2018-11-28T10:23:34.550Z,27.53
2018-11-28T10:25:38.069Z,31.23
2018-11-28T10:27:41.819Z,29.50
2018-11-28T10:29:45.322Z,28.67
2018-11-28T10:31:48.815Z,30.40
2018-11-28T10:33:52.457Z,26.90
2018-11-28T10:35:55.987Z,27.93
2018-11-28T10:37:59.569Z,25.77
2018-11-28T10:40:03.085Z,30.30
2018-11-28T10:42:06.598Z,28.63
2018-11-28T10:44:10.241Z,27.50
2018-11-28T10:46:13.777Z,25.90
2018-11-28T10:48:17.321Z,26.73
2018-11-28T10:50:20.862Z,26.13
2018-11-28T10:52:24.442Z,27.03
2018-11-28T10:54:30.078Z,27.33
2018-11-28T10:56:33.651Z,29.00
2018-11-28T10:58:37.232Z,29.07
2018-11-28T11:00:46.108Z,26.03
2018-11-28T11:02:55.040Z,26.60
2018-11-28T11:05:03.949Z,24.73
2018-11-28T11:07:13.112Z,25.17
2018-11-28T11:09:22.102Z,29.63
2018-11-28T11:11:26.569Z,28.63
2018-11-28T11:13:35.604Z,25.23
2018-11-28T11:15:39.300Z,26.47
2018-11-28T11:17:42.818Z,25.90
2018-11-28T11:19:46.349Z,23.20
2018-11-28T11:21:51.779Z,25.30
2018-11-28T11:23:55.362Z,24.37
2018-11-28T11:25:59.020Z,24.60
2018-11-28T11:28:02.783Z,25.07
2018-11-28T11:30:09.227Z,25.43
2018-11-28T11:32:12.974Z,23.17
2018-11-28T11:34:16.511Z,25.77
2018-11-28T11:36:20.195Z,25.47
2018-11-28T11:38:25.926Z,24.17
2018-11-28T11:40:29.636Z,24.47
2018-11-28T11:42:33.229Z,24.73
2018-11-28T11:44:36.730Z,25.03
2018-11-28T11:46:40.365Z,23.93
2018-11-28T11:48:43.923Z,24.90
2018-11-28T11:50:47.534Z,24.97
2018-11-28T11:52:51.087Z,26.67
2018-11-28T11:54:54.598Z,25.00
2018-11-28T11:56:58.217Z,27.00
2018-11-28T11:59:01.775Z,26.57
2018-11-28T12:01:06.283Z,26.47
2018-11-28T12:03:12.994Z,24.23
2018-11-28T12:05:16.573Z,26.33
2018-11-28T12:07:20.099Z,28.90
2018-11-28T12:09:23.637Z,26.67
2018-11-28T12:11:27.261Z,31.87
2018-11-28T12:13:31.014Z,30.03
2018-11-28T12:15:35.686Z,28.30
2018-11-28T12:17:38.090Z,28.20
2018-11-28T12:19:41.626Z,26.37
2018-11-28T12:21:45.166Z,26.17
2018-11-28T12:23:48.747Z,29.87
2018-11-28T12:25:52.322Z,26.80
2018-11-28T12:27:55.851Z,24.97
2018-11-28T12:29:59.489Z,27.43
2018-11-28T12:32:03.034Z,33.60
2018-11-28T12:34:06.732Z,29.20
2018-11-28T12:36:10.283Z,27.77
2018-11-28T12:38:13.860Z,28.43
2018-11-28T12:40:17.934Z,27.03
2018-11-28T12:42:21.460Z,27.60
2018-11-28T12:44:25.039Z,28.93
2018-11-28T12:46:28.634Z,25.67
2018-11-28T12:48:32.279Z,26.77
2018-11-28T12:50:35.917Z,28.20
2018-11-28T12:52:39.524Z,30.63
2018-11-28T12:54:43.060Z,29.07
2018-11-28T12:56:46.802Z,30.73
2018-11-28T12:58:50.306Z,33.00
2018-11-28T13:00:53.911Z,31.53
2018-11-28T13:02:57.577Z,32.07
2018-11-28T13:05:01.193Z,33.40
2018-11-28T13:07:04.779Z,33.37
2018-11-28T13:09:08.382Z,35.73
2018-11-28T13:11:11.918Z,32.63
2018-11-28T13:13:15.564Z,35.73
2018-11-28T13:15:20.081Z,29.80
2018-11-28T13:17:23.611Z,29.53
2018-11-28T13:19:27.302Z,29.83
2018-11-28T13:21:31.126Z,29.70
2018-11-28T13:23:34.338Z,29.47
2018-11-28T13:25:37.911Z,28.90
2018-11-28T13:27:41.610Z,30.87
2018-11-28T13:29:45.126Z,33.53
2018-11-28T13:31:48.673Z,29.43
2018-11-28T13:33:52.423Z,29.50
2018-11-28T13:35:55.974Z,30.60
2018-11-28T13:38:02.281Z,32.97
2018-11-28T13:40:08.155Z,33.90
2018-11-28T13:42:11.781Z,30.97
2018-11-28T13:44:15.366Z,32.07
2018-11-28T13:46:18.886Z,31.10
2018-11-28T13:48:22.388Z,31.27
2018-11-28T13:50:25.936Z,31.47
2018-11-28T13:52:29.510Z,32.97
2018-11-28T13:54:33.077Z,32.20
2018-11-28T13:58:40.109Z,31.87
2018-11-28T14:00:43.669Z,34.87
2018-11-28T14:02:47.206Z,31.97
2018-11-28T14:04:50.753Z,32.93
2018-11-28T14:06:54.263Z,38.83
2018-11-28T14:08:58.058Z,36.17
2018-11-28T14:11:01.665Z,34.57
2018-11-28T14:13:05.521Z,38.80
2018-11-28T14:15:17.509Z,34.30
2018-11-28T14:17:21.070Z,47.80
2018-11-28T14:19:24.703Z,45.00
2018-11-28T14:21:28.369Z,39.97
2018-11-28T14:23:31.912Z,39.00
2018-11-28T14:25:35.638Z,40.17
2018-11-28T14:27:39.258Z,43.13
2018-11-28T14:29:42.766Z,36.40
2018-11-28T14:31:46.430Z,42.33
2018-11-28T14:33:50.934Z,41.30
2018-11-28T14:35:53.518Z,43.63
2018-11-28T14:37:57.130Z,42.63
2018-11-28T14:40:00.659Z,42.60
2018-11-28T14:42:04.254Z,46.50
2018-11-28T14:44:07.909Z,45.70
2018-11-28T14:46:11.493Z,38.93
2018-11-28T14:48:15.258Z,42.43
2018-11-28T14:50:22.853Z,42.10
2018-11-28T14:52:26.426Z,45.33
2018-11-28T14:54:29.933Z,50.07
2018-11-28T14:56:33.443Z,44.10
2018-11-28T14:58:37.255Z,43.97
2018-11-28T15:00:41.328Z,48.47
2018-11-28T15:02:45.490Z,44.77
2018-11-28T15:04:49.014Z,42.30
2018-11-28T15:06:54.926Z,39.93
2018-11-28T15:09:03.885Z,39.73
2018-11-28T15:11:10.754Z,42.30
2018-11-28T15:13:14.325Z,40.97
2018-11-28T15:15:17.853Z,38.77
2018-11-28T15:17:21.372Z,41.10
2018-11-28T15:19:24.996Z,42.20
2018-11-28T15:21:28.590Z,41.53
2018-11-28T15:23:32.785Z,39.97
2018-11-28T15:25:36.396Z,41.13
2018-11-28T15:27:39.936Z,45.87
2018-11-28T15:29:43.473Z,45.10
2018-11-28T15:31:47.048Z,50.93
2018-11-28T15:33:50.726Z,53.20
2018-11-28T15:36:00.866Z,50.73
2018-11-28T15:38:04.469Z,51.53
2018-11-28T15:40:09.005Z,44.90
2018-11-28T15:42:12.530Z,43.80
2018-11-28T15:44:16.037Z,47.27
2018-11-28T15:46:19.795Z,43.23
2018-11-28T15:48:23.341Z,45.70
2018-11-28T15:50:26.877Z,52.17
2018-11-28T15:52:30.549Z,42.83
2018-11-28T15:54:34.063Z,43.20
2018-11-28T15:56:37.699Z,37.13
2018-11-28T15:58:41.223Z,39.87
2018-11-28T16:00:44.874Z,39.40
2018-11-28T16:02:48.658Z,72.57
2018-11-28T16:04:52.244Z,81.17
2018-11-28T16:06:55.814Z,46.13
2018-11-28T16:08:59.373Z,42.63
2018-11-28T16:11:06.091Z,32.90
2018-11-28T16:13:09.918Z,34.77
2018-11-28T16:15:16.016Z,39.63
2018-11-28T16:17:20.421Z,35.37
2018-11-28T16:19:24.009Z,34.87
2018-11-28T16:21:27.536Z,34.60
2018-11-28T16:23:31.098Z,37.17
2018-11-28T16:25:34.707Z,36.50
2018-11-28T16:27:41.660Z,36.60
2018-11-28T16:29:42.506Z,34.57
2018-11-28T16:31:46.130Z,35.80
2018-11-28T16:33:49.826Z,35.43
2018-11-28T16:35:53.493Z,33.37
2018-11-28T16:37:56.980Z,35.47
2018-11-28T16:40:00.606Z,37.50
2018-11-28T16:42:04.164Z,39.30
2018-11-28T16:44:07.754Z,41.87
2018-11-28T16:46:11.421Z,41.13
2018-11-28T16:48:14.935Z,42.73
2018-11-28T16:50:18.859Z,38.13
2018-11-28T16:52:22.565Z,37.93
2018-11-28T16:54:26.088Z,41.80
2018-11-28T16:56:29.604Z,37.83
2018-11-28T16:58:33.315Z,37.60
2018-11-28T17:00:39.086Z,40.53
2018-11-28T17:02:42.829Z,41.60
2018-11-28T17:04:46.340Z,37.87
2018-11-28T17:06:49.857Z,40.70
2018-11-28T17:08:53.400Z,47.50
2018-11-28T17:10:56.905Z,43.57
2018-11-28T17:13:00.473Z,40.00
2018-11-28T17:15:04.126Z,41.13
2018-11-28T17:17:07.715Z,36.90
2018-11-28T17:19:11.438Z,38.73
2018-11-28T17:21:14.990Z,39.20
2018-11-28T17:23:18.644Z,38.70
2018-11-28T17:25:25.294Z,42.07
2018-11-28T17:27:28.870Z,39.97
2018-11-28T17:29:32.420Z,40.40
2018-11-28T17:31:36.061Z,45.03
2018-11-28T17:33:39.635Z,43.77
2018-11-28T17:35:43.181Z,40.63
2018-11-28T17:37:46.763Z,42.07
2018-11-28T17:39:50.335Z,33.70
2018-11-28T17:41:53.943Z,40.53
2018-11-28T17:43:57.656Z,35.57
2018-11-28T17:46:01.184Z,53.27
2018-11-28T17:48:05.443Z,49.80
2018-11-28T17:50:11.124Z,53.03
2018-11-28T17:52:15.090Z,52.93
2018-11-28T17:54:18.706Z,52.10
2018-11-28T17:56:22.226Z,66.07
2018-11-28T17:58:25.970Z,63.30
2018-11-28T18:00:29.703Z,51.80
2018-11-28T18:02:33.289Z,50.70
2018-11-28T18:04:36.895Z,52.50
2018-11-28T18:06:40.511Z,46.93
2018-11-28T18:08:44.339Z,40.73
2018-11-28T18:10:47.950Z,41.57
2018-11-28T18:13:28.602Z,42.73
2018-11-28T18:15:32.236Z,40.63
2018-11-28T18:17:35.851Z,42.07
2018-11-28T18:19:39.604Z,47.97
2018-11-28T18:21:43.145Z,43.30
2018-11-28T18:23:46.766Z,40.50
2018-11-28T18:25:50.466Z,42.33
2018-11-28T18:27:54.173Z,44.93
2018-11-28T18:29:57.814Z,41.57
2018-11-28T18:32:01.348Z,40.50
2018-11-28T18:34:05.027Z,43.97
2018-11-28T18:36:10.993Z,41.30
2018-11-28T18:38:14.518Z,45.27
2018-11-28T18:40:18.193Z,40.10
2018-11-28T18:42:21.767Z,42.07
2018-11-28T18:44:25.272Z,41.03
2018-11-28T18:46:28.926Z,42.33
2018-11-28T18:48:32.548Z,41.07
2018-11-28T18:50:36.135Z,43.47
2018-11-28T18:52:39.821Z,43.10
2018-11-28T18:54:43.473Z,37.90
2018-11-28T18:56:47.061Z,37.87
2018-11-28T18:58:50.725Z,40.63
2018-11-28T19:00:54.352Z,40.20
2018-11-28T19:02:57.917Z,44.33
2018-11-28T19:05:01.523Z,39.93
2018-11-28T19:07:05.447Z,42.13
2018-11-28T19:09:14.136Z,41.40
2018-11-28T19:11:17.670Z,42.53
2018-11-28T19:13:21.216Z,45.53
2018-11-28T19:15:26.117Z,40.17
2018-11-28T19:17:29.765Z,42.60
2018-11-28T19:19:33.468Z,44.23
2018-11-28T19:21:37.021Z,41.63
2018-11-28T19:23:40.764Z,43.67
2018-11-28T19:25:49.730Z,38.97
2018-11-28T19:27:48.105Z,40.17
2018-11-28T19:29:51.690Z,37.80
2018-11-28T19:31:55.356Z,43.47
2018-11-28T19:33:58.984Z,43.40
2018-11-28T19:36:02.661Z,39.87
2018-11-28T19:38:09.292Z,38.87
2018-11-28T19:40:15.232Z,38.97
2018-11-28T19:42:18.951Z,42.80
2018-11-28T19:44:22.579Z,39.97
2018-11-28T19:46:26.191Z,43.47
2018-11-28T19:48:29.784Z,43.57
2018-11-28T19:50:34.522Z,43.90
2018-11-28T19:52:38.363Z,45.10
2018-11-28T19:54:42.321Z,46.57
2018-11-28T19:56:45.903Z,48.13
2018-11-28T19:58:49.565Z,47.93
2018-11-28T20:00:53.149Z,175.27
2018-11-28T20:02:56.726Z,57.03
2018-11-28T20:05:00.474Z,53.53
2018-11-28T20:07:04.082Z,68.67
2018-11-28T20:09:14.951Z,51.87
2018-11-28T20:11:18.491Z,62.57
2018-11-28T20:13:22.245Z,74.53
2018-11-28T20:15:27.029Z,77.27
2018-11-28T20:17:30.698Z,55.90
2018-11-28T20:19:34.332Z,43.53
2018-11-28T20:21:38.073Z,43.00
2018-11-28T20:23:41.573Z,46.57
2018-11-28T20:25:45.408Z,43.23
2018-11-28T20:27:51.497Z,38.93
2018-11-28T20:29:55.079Z,43.50
2018-11-28T20:31:58.683Z,46.23
2018-11-28T20:34:02.276Z,47.73
2018-11-28T20:36:06.346Z,45.20
2018-11-28T20:38:18.011Z,46.13
2018-11-28T20:40:21.562Z,42.27
2018-11-28T20:42:25.191Z,44.07
2018-11-28T20:44:28.843Z,49.00
2018-11-28T20:46:32.429Z,50.27
2018-11-28T20:48:36.128Z,48.77
2018-11-28T20:50:39.687Z,44.10
2018-11-28T20:52:45.267Z,45.87
2018-11-28T20:54:49.143Z,43.10
2018-11-28T20:56:52.923Z,49.13
2018-11-28T20:58:56.567Z,44.97
2018-11-28T21:01:00.169Z,49.53
2018-11-28T21:03:03.693Z,45.03
2018-11-28T21:05:07.241Z,44.17
2018-11-28T21:07:10.816Z,43.23
2018-11-28T21:09:14.343Z,41.80
2018-11-28T21:11:17.874Z,44.63
2018-11-28T21:13:21.425Z,43.93
2018-11-28T21:15:25.006Z,48.33
2018-11-28T21:17:28.538Z,44.40
2018-11-28T21:19:32.168Z,45.50
2018-11-28T21:21:35.734Z,49.80
2018-11-28T21:23:39.226Z,45.37
2018-11-28T21:25:42.774Z,42.87
2018-11-28T21:27:46.544Z,46.77
2018-11-28T21:29:50.198Z,47.13
2018-11-28T21:31:53.715Z,42.27
2018-11-28T21:33:57.331Z,42.80
2018-11-28T21:36:01.081Z,45.00
2018-11-28T21:38:04.727Z,45.73
2018-11-28T21:40:09.133Z,45.57
2018-11-28T21:42:12.849Z,46.23
2018-11-28T21:44:17.586Z,46.90
2018-11-28T21:46:21.156Z,46.23
2018-11-28T21:48:24.718Z,49.30
2018-11-28T21:50:28.439Z,48.20
2018-11-28T21:52:31.986Z,48.20
2018-11-28T21:54:35.666Z,46.17
2018-11-28T21:56:41.162Z,43.20
2018-11-28T21:58:44.693Z,44.37
2018-11-28T22:00:48.300Z,44.13
2018-11-28T22:02:51.965Z,51.83
2018-11-28T22:04:55.513Z,47.67
2018-11-28T22:06:59.024Z,44.40
2018-11-28T22:09:02.694Z,41.67
2018-11-28T22:11:06.498Z,47.60
2018-11-28T22:13:10.023Z,45.37
2018-11-28T22:15:14.555Z,48.90
2018-11-28T22:17:18.307Z,47.60
2018-11-28T22:19:21.966Z,49.10
2018-11-28T22:21:25.525Z,45.67
2018-11-28T22:23:29.034Z,43.73
2018-11-28T22:25:36.073Z,47.53
2018-11-28T22:27:39.604Z,49.80
2018-11-28T22:29:43.162Z,46.13
2018-11-28T22:31:46.879Z,55.37
2018-11-28T22:33:50.468Z,46.03
2018-11-28T22:35:54.090Z,45.73
2018-11-28T22:37:57.646Z,47.73
2018-11-28T22:40:01.352Z,47.43
2018-11-28T22:42:04.970Z,49.77
2018-11-28T22:44:08.538Z,45.97
2018-11-28T22:46:12.211Z,45.37
2018-11-28T22:48:16.086Z,45.30
2018-11-28T22:50:19.612Z,45.13
2018-11-28T22:52:23.237Z,42.27
2018-11-28T22:54:26.795Z,44.47
2018-11-28T22:56:30.330Z,45.67
2018-11-28T22:58:33.958Z,42.53
2018-11-28T23:00:42.750Z,40.77
2018-11-28T23:02:58.218Z,40.87
2018-11-28T23:05:02.051Z,39.50
2018-11-28T23:07:05.613Z,46.07
2018-11-28T23:09:09.129Z,46.10
2018-11-28T23:11:12.795Z,42.47
2018-11-28T23:13:19.699Z,42.17
2018-11-28T23:15:23.267Z,55.33
2018-11-28T23:17:26.966Z,61.80
2018-11-28T23:19:30.562Z,55.53
2018-11-28T23:21:34.189Z,49.80
2018-11-28T23:23:38.026Z,48.00
2018-11-28T23:25:41.571Z,59.07
2018-11-28T23:27:45.171Z,58.90
2018-11-28T23:29:48.736Z,67.70
2018-11-28T23:31:52.293Z,56.70
2018-11-28T23:33:55.807Z,50.43
2018-11-28T23:35:59.312Z,46.97
2018-11-28T23:38:02.868Z,47.90
2018-11-28T23:40:26.055Z,43.40
2018-11-28T23:42:29.719Z,43.83
2018-11-28T23:44:33.233Z,45.83
2018-11-28T23:46:36.733Z,44.60
2018-11-28T23:48:40.252Z,45.50
2018-11-28T23:50:43.884Z,40.73
2018-11-28T23:52:47.959Z,51.60
2018-11-28T23:54:51.602Z,47.27
2018-11-28T23:56:55.103Z,50.30
2018-11-28T23:58:58.925Z,45.83
